Terminal Aerodrome Forecast
Issued by NWS Pueblo, CO

Current Version | Previous Version | Text Only | Print | Product List | Glossary On
Versions: 1 2 3 4 5 6 7 8 9 10 11 12 13 14 15 16 17 18
000
FTUS45 KPUB 261756
TAFPUB
TAF
KPUB 261756Z 2618/2718 06008KT P6SM FEW080 SCT200
     FM262100 08012KT P6SM VCTS SCT080CB BKN150
      TEMPO 2700/2704 VRB20G35KT 3SM TSRA BKN050CB
     FM270400 01010KT P6SM VCSH SCT050 BKN090
      TEMPO 2704/2708 5SM SHRA BKN040
     FM271000 08008KT P6SM SCT020 OVC040=

USA.gov is the U.S. government's official web portal to all federal, state and local government web resources and services.